Terminal Aerodrome Forecast
Issued by NWS Missoula, MT

Home | Current Version | Previous Version | Text Only | Print | Product List | Glossary On
Versions: 1 2 3 4 5 6 7 8 9 10 11 12 13 14
000
FTUS45 KMSO 020520
TAFMSO
TAF
KMSO 020520Z 0206/0306 08004KT P6SM BKN070
     FM021800 33012KT P6SM BKN120
     FM030300 36008KT P6SM SKC=

USA.gov is the U.S. government's official web portal to all federal, state and local government web resources and services.